Court-Saint-Etienne, Belgium
Current Conditions -  °F | °C
As of 11:25 PM on Saturday 25 Oct 2014 (Local Time) from EBBE Reporting Station
Few Clouds Few Clouds  
Wind Chill: 11°   Ceiling: Unl
Heat Index: 11°   Visibility: 6mi
Dew Point: 10°   Wind: 7mph
Humidity: 94%   Direction: 200°SSW
Pressure: 30.21"   Gusts: NA
Location:  50.63°N, 4.57°E
Report Text: EBBE 252125Z AUTO 20006KT 9999 FEW048/// 11/10 Q1023 BLU
Loading
Personal Weather Stations






























Interactive Weather Map
Tropical Storm Tracking
New forecast layout! Learn more

10-Day Weather Forecast

Advertisements
Track Severe Weather on mobile